Airfield :
LOGIN :

Register | Disclaimer

   EN    FR    IT 

 










Legend :    VFR   Marginal VFR   IFR   Intensive IFR   Very Intensive IFR
Visi :
Ceiling :
>= 8 km
>= 3000ft
5 to 8 km
1000 to 3000 ft
1500m to 5 km
500 to 1000 ft
800 to 1500m
200 to 500 ft
< 800m
< 200 ft
Symbols :   Thunderstorms  Fog  Heavy snow  Heavy precipitations  Wind > 20 kt
SIGMETs :     Misc.  Thunderstorms  Icing  Turbulence  Mountain Waves  Volcanic Ashes






- Airport Elevation : 465 ft
- IATA code : LEJ


EDDP - Leipzig Halle

CURRENT METAR :
  • 201850Z 05005KT 020V080 4000 -DZ BR BKN003 04/04 Q1016 TEMPO 2500 BR

EXPIRED METARs :
  • 201820Z 05006KT 5000 BR BKN003 04/04 Q1016 TEMPO 3000 BR
  • 201750Z 04005KT 6000 BKN003 04/04 Q1016 TEMPO 3000 BR
  • 201720Z 06004KT 4500 -DZ BR BKN003 BKN007 04/04 Q1016 TEMPO 1200 BCFG
  • 201650Z 04005KT 5000 -DZ BKN003 BKN006 04/04 Q1016 TEMPO 4000 -RADZ
  • 201620Z 04006KT 6000 -DZ BKN004 BKN006 04/04 Q1016 TEMPO 4000 -RADZ

TAF TAF EDDP
Valid from the 20 at 18:00 until the 21 at 18:00 UTC


201700Z 2018/2118 04005KT 4000 BR BKN004
PROB40
TEMPO 2018/2021 6000 BKN006
BECMG 2018/2021 2000 -DZ
TEMPO 2018/2112 1200 BCFG BKN001
PROB40
TEMPO 2021/2109 0300 FG



MET'MAP, your aeronautical weather chart ! - Copyright ORBIFLY December 2007 - Disclaimer

ORBIFLY MET'MAP TEAM :

Programming & Development : Alexandra Zaïnal
Concept & Development : Baudouin d'Aumeries
Co-Development & Prog : Marc-Olivier Méhu
Technical & hardware support : Manuel Goepfert

Contact : metmap@orbifly.com




SOURCES & CREDITS :

   NOAA